Wilmington, North Carolina
Current Conditions -  °F | °C
As of 9:53 PM on Monday 26 Jan 2015 (Local Time) from KILM Reporting Station
Overcast Overcast  
Wind Chill:   Ceiling: 4000
Heat Index:   Visibility: 10mi
Dew Point:   Wind: 8mph
Humidity: 93%   Direction: 290°WNW
Pressure: 29.65"   Gusts: NA
Location:  34.24°N, 77.94°W
Report Text: KILM 270253Z AUTO 29007KT 10SM FEW027 BKN040 OVC048 08/07 A2965 RMK AO2 SLP040 60003 T00830072 51008
Loading
Personal Weather Stations






























Interactive Weather Map New forecast layout! Learn more

10-Day Weather Forecast

Advertisements
Track Severe Weather on mobile